createdAt,value
2023-05-24T00:03:30.995Z,13.09
2023-05-24T00:08:33.964Z,12.79
2023-05-24T00:13:38.341Z,12.84
2023-05-24T00:18:42.064Z,12.88
2023-05-24T00:23:45.565Z,12.97
2023-05-24T00:28:49.728Z,13.05
2023-05-24T00:33:54.053Z,12.88
2023-05-24T00:38:56.832Z,13.25
2023-05-24T00:44:01.053Z,13.32
2023-05-24T00:49:05.271Z,13.45
2023-05-24T00:54:08.185Z,13.07
2023-05-24T00:59:12.555Z,12.98
2023-05-24T01:04:17.654Z,12.90
2023-05-24T01:09:29.930Z,13.28
2023-05-24T01:14:45.990Z,12.98
2023-05-24T01:20:00.034Z,12.76
2023-05-24T01:25:05.861Z,13.01
2023-05-24T01:30:11.128Z,12.80
2023-05-24T01:35:14.013Z,12.98
2023-05-24T01:40:17.302Z,13.04
2023-05-24T01:45:29.766Z,13.15
2023-05-24T01:50:35.072Z,12.84
2023-05-24T01:55:39.093Z,13.13
2023-05-24T02:00:45.698Z,13.21
2023-05-24T02:05:49.337Z,13.27
2023-05-24T02:10:52.225Z,12.83
2023-05-24T02:15:56.419Z,13.08
2023-05-24T02:21:02.150Z,13.33
2023-05-24T02:26:05.027Z,13.34
2023-05-24T02:31:09.170Z,13.25
2023-05-24T02:36:12.081Z,13.42
2023-05-24T02:41:18.056Z,13.40
2023-05-24T02:46:22.307Z,13.52
2023-05-24T02:51:25.229Z,13.34
2023-05-24T02:56:29.165Z,13.30
2023-05-24T03:01:34.393Z,13.47
2023-05-24T03:06:38.675Z,13.38
2023-05-24T03:11:41.529Z,13.35
2023-05-24T03:16:46.733Z,13.44
2023-05-24T03:21:49.604Z,13.38
2023-05-24T03:26:52.383Z,13.20
2023-05-24T03:31:56.695Z,13.18
2023-05-24T03:37:00.323Z,12.71
2023-05-24T03:42:04.268Z,13.06
2023-05-24T03:47:09.617Z,13.24
2023-05-24T03:52:13.005Z,13.30
2023-05-24T03:57:15.942Z,12.94
2023-05-24T04:02:20.229Z,12.80
2023-05-24T04:07:24.509Z,13.41
2023-05-24T04:12:27.534Z,12.72
2023-05-24T04:17:35.140Z,12.74
2023-05-24T04:22:38.379Z,13.14
2023-05-24T04:27:41.345Z,12.51
2023-05-24T04:32:46.046Z,12.34
2023-05-24T04:37:49.692Z,12.27
2023-05-24T04:42:53.694Z,12.34
2023-05-24T04:47:58.258Z,12.53
2023-05-24T04:53:01.179Z,12.49
2023-05-24T04:58:04.393Z,12.55
2023-05-24T05:03:08.870Z,12.23
2023-05-24T05:08:11.985Z,12.39
2023-05-24T05:13:14.903Z,12.80
2023-05-24T05:18:19.395Z,12.61
2023-05-24T05:23:22.407Z,12.88
2023-05-24T05:28:25.335Z,12.73
2023-05-24T05:33:29.985Z,13.11
2023-05-24T05:38:32.765Z,13.42
2023-05-24T05:43:35.745Z,13.38
2023-05-24T05:48:40.014Z,13.64
2023-05-24T05:53:42.999Z,13.35
2023-05-24T05:58:45.839Z,13.91
2023-05-24T06:03:50.136Z,13.25
2023-05-24T06:08:53.144Z,13.78
2023-05-24T06:13:56.048Z,13.39
2023-05-24T06:19:05.804Z,13.79
2023-05-24T06:24:09.769Z,13.62
2023-05-24T06:29:12.634Z,14.21
2023-05-24T06:34:17.739Z,14.31
2023-05-24T06:39:20.954Z,14.27
2023-05-24T06:44:30.871Z,14.08
2023-05-24T06:49:35.088Z,14.86
2023-05-24T06:54:39.061Z,14.78
2023-05-24T06:59:42.214Z,14.70
2023-05-24T07:04:46.497Z,14.64
2023-05-24T07:09:49.333Z,15.11
2023-05-24T07:14:52.200Z,15.37
2023-05-24T07:19:57.014Z,14.93
2023-05-24T07:24:59.834Z,15.08
2023-05-24T07:30:02.755Z,14.99
2023-05-24T07:35:08.141Z,15.13
2023-05-24T07:40:12.242Z,15.45
2023-05-24T07:45:15.109Z,15.55
2023-05-24T07:50:20.087Z,16.04
2023-05-24T07:55:22.947Z,16.16
2023-05-24T08:00:25.992Z,15.73
2023-05-24T08:05:30.207Z,16.15
2023-05-24T08:10:33.162Z,15.94
2023-05-24T08:15:36.299Z,16.02
2023-05-24T08:20:41.219Z,15.89
2023-05-24T08:25:44.801Z,16.32
2023-05-24T08:30:48.127Z,16.97
2023-05-24T08:35:52.962Z,17.23
2023-05-24T08:40:56.004Z,16.90
2023-05-24T08:46:00.105Z,16.40
2023-05-24T08:51:04.520Z,16.50
2023-05-24T08:56:08.985Z,16.03
2023-05-24T09:01:12.993Z,16.23
2023-05-24T09:06:18.895Z,17.16
2023-05-24T09:11:22.829Z,17.44
2023-05-24T09:16:26.229Z,18.81
2023-05-24T09:21:30.743Z,20.06
2023-05-24T09:26:34.043Z,19.99
2023-05-24T09:31:38.440Z,19.94
2023-05-24T09:36:44.071Z,19.25
2023-05-24T09:41:55.753Z,18.92
2023-05-24T09:47:05.364Z,18.24
2023-05-24T09:52:09.739Z,18.02
2023-05-24T09:57:12.628Z,17.41
2023-05-24T10:02:18.542Z,18.56
2023-05-24T10:07:22.884Z,19.65
2023-05-24T10:12:26.184Z,19.91
2023-05-24T10:17:29.310Z,19.82
2023-05-24T10:22:38.707Z,20.09
2023-05-24T10:27:42.590Z,19.63
2023-05-24T10:32:49.029Z,18.77
2023-05-24T10:37:54.487Z,18.59
2023-05-24T10:42:57.341Z,18.45
2023-05-24T10:48:03.349Z,18.79
2023-05-24T10:53:14.851Z,18.90
2023-05-24T10:58:17.715Z,19.77
2023-05-24T11:03:23.798Z,20.09
2023-05-24T11:08:33.288Z,20.54
2023-05-24T11:13:37.911Z,20.79
2023-05-24T11:18:40.918Z,20.39
2023-05-24T11:23:45.478Z,20.28
2023-05-24T11:28:49.024Z,19.66
2023-05-24T11:33:51.826Z,19.68
2023-05-24T11:38:56.794Z,19.54
2023-05-24T11:44:00.068Z,19.35
2023-05-24T11:49:03.753Z,18.91
2023-05-24T11:54:08.027Z,18.60
2023-05-24T11:59:16.339Z,18.83
2023-05-24T12:04:19.570Z,18.89
2023-05-24T12:09:24.757Z,19.38
2023-05-24T12:14:30.957Z,19.48
2023-05-24T12:19:36.274Z,19.87
2023-05-24T12:24:42.278Z,20.25
2023-05-24T12:29:45.194Z,20.72
2023-05-24T12:34:50.888Z,20.26
2023-05-24T12:39:55.085Z,19.82
2023-05-24T12:44:58.197Z,19.14
2023-05-24T12:50:01.030Z,19.03
2023-05-24T12:55:06.917Z,18.71
2023-05-24T13:00:11.662Z,19.56
2023-05-24T13:05:14.676Z,19.84
2023-05-24T13:10:19.459Z,20.66
2023-05-24T13:15:24.035Z,20.85
2023-05-24T13:20:27.472Z,21.05
2023-05-24T13:25:32.647Z,21.43
2023-05-24T13:30:35.649Z,21.06
2023-05-24T13:35:39.812Z,20.87
2023-05-24T13:40:44.748Z,21.04
2023-05-24T13:45:47.843Z,19.93
2023-05-24T13:50:51.464Z,20.60
2023-05-24T13:55:56.539Z,20.93
2023-05-24T14:00:59.461Z,20.95
2023-05-24T14:06:02.745Z,20.02
2023-05-24T14:11:07.231Z,20.66
2023-05-24T14:16:10.271Z,19.98
2023-05-24T14:21:13.184Z,20.97
2023-05-24T14:26:17.859Z,19.91
2023-05-24T14:31:20.972Z,20.32
2023-05-24T14:36:23.893Z,20.95
2023-05-24T14:41:28.648Z,20.80
2023-05-24T14:46:31.631Z,20.77
2023-05-24T14:51:34.861Z,20.48
2023-05-24T14:56:38.999Z,20.32
2023-05-24T15:01:41.971Z,19.53
2023-05-24T15:06:44.929Z,20.05
2023-05-24T15:11:49.173Z,20.64
2023-05-24T15:16:52.114Z,20.66
2023-05-24T15:21:55.561Z,19.87
2023-05-24T15:26:59.953Z,19.72
2023-05-24T15:32:02.889Z,20.47
2023-05-24T15:37:06.033Z,20.23
2023-05-24T15:42:10.266Z,19.56
2023-05-24T15:47:13.171Z,20.26
2023-05-24T15:52:16.020Z,19.83
2023-05-24T15:57:20.215Z,19.63
2023-05-24T16:02:23.258Z,19.11
2023-05-24T16:07:26.366Z,19.71
2023-05-24T16:12:33.061Z,19.07
2023-05-24T16:17:35.925Z,18.77
2023-05-24T16:22:42.345Z,19.38
2023-05-24T16:27:48.350Z,19.00
2023-05-24T16:32:51.318Z,19.26
2023-05-24T16:37:57.128Z,19.29
2023-05-24T16:43:01.421Z,19.72
2023-05-24T16:48:04.509Z,19.41
2023-05-24T16:53:07.516Z,19.63
2023-05-24T16:58:12.165Z,19.37
2023-05-24T17:03:15.580Z,19.42
2023-05-24T17:08:18.979Z,19.15
2023-05-24T17:13:23.647Z,19.24
2023-05-24T17:18:30.298Z,18.75
2023-05-24T17:23:36.616Z,18.44
2023-05-24T17:28:41.089Z,18.22
2023-05-24T17:33:44.077Z,18.53
2023-05-24T17:38:46.963Z,18.30
2023-05-24T17:43:51.201Z,18.48
2023-05-24T17:48:54.472Z,18.46
2023-05-24T17:53:57.481Z,17.84
2023-05-24T17:59:01.747Z,18.24
2023-05-24T18:04:07.655Z,17.90
2023-05-24T18:09:11.371Z,17.94
2023-05-24T18:14:15.725Z,17.68
2023-05-24T18:19:18.654Z,17.75
2023-05-24T18:24:21.968Z,17.08
2023-05-24T18:29:26.161Z,16.94
2023-05-24T18:34:29.078Z,17.10
2023-05-24T18:39:31.984Z,16.81
2023-05-24T18:44:39.955Z,16.26
2023-05-24T18:49:42.844Z,16.00
2023-05-24T18:54:47.069Z,15.96
2023-05-24T18:59:51.685Z,15.49
2023-05-24T19:04:58.161Z,15.56
2023-05-24T19:10:01.334Z,15.37
2023-05-24T19:15:06.668Z,15.33
2023-05-24T19:20:10.195Z,14.95
2023-05-24T19:25:13.059Z,14.83
2023-05-24T19:30:18.478Z,14.84
2023-05-24T19:35:21.408Z,14.69
2023-05-24T19:40:24.291Z,14.51
2023-05-24T19:45:28.574Z,14.19
2023-05-24T19:50:31.619Z,14.37
2023-05-24T19:55:34.422Z,14.36
2023-05-24T20:00:38.798Z,14.34
2023-05-24T20:05:41.915Z,14.29
2023-05-24T20:10:45.159Z,14.10
2023-05-24T20:15:49.491Z,13.97
2023-05-24T20:20:52.421Z,13.68
2023-05-24T20:25:56.216Z,13.78
2023-05-24T20:31:01.506Z,13.83
2023-05-24T20:36:05.169Z,14.11
2023-05-24T20:41:08.076Z,14.03
2023-05-24T20:46:12.527Z,13.88
2023-05-24T20:51:15.433Z,14.13
2023-05-24T20:56:19.751Z,14.14
2023-05-24T21:01:24.128Z,14.07
2023-05-24T21:06:27.076Z,14.15
2023-05-24T21:11:29.952Z,14.16
2023-05-24T21:16:34.339Z,14.29
2023-05-24T21:21:37.667Z,14.48
2023-05-24T21:26:40.519Z,14.40
2023-05-24T21:31:45.280Z,14.22
2023-05-24T21:36:48.164Z,14.25
2023-05-24T21:41:50.951Z,14.11
2023-05-24T21:46:55.689Z,13.82
2023-05-24T21:51:58.806Z,13.98
2023-05-24T21:57:01.808Z,14.03
2023-05-24T22:02:06.170Z,14.01
2023-05-24T22:07:10.130Z,13.84
2023-05-24T22:12:13.044Z,13.68
2023-05-24T22:17:17.268Z,13.94
2023-05-24T22:22:20.262Z,13.65
2023-05-24T22:27:23.463Z,13.74
2023-05-24T22:32:28.054Z,13.75
2023-05-24T22:37:30.944Z,13.90
2023-05-24T22:42:33.771Z,13.97
2023-05-24T22:47:39.779Z,13.94
2023-05-24T22:52:43.284Z,13.76
2023-05-24T22:57:46.308Z,13.80
2023-05-24T23:02:50.495Z,13.67
2023-05-24T23:07:54.998Z,13.63
2023-05-24T23:12:58.681Z,13.17
2023-05-24T23:18:05.689Z,12.75
2023-05-24T23:23:09.108Z,12.69
2023-05-24T23:28:11.934Z,12.73
2023-05-24T23:33:16.441Z,12.56
2023-05-24T23:38:19.281Z,12.78
2023-05-24T23:43:22.059Z,12.96
2023-05-24T23:48:26.225Z,12.71
2023-05-24T23:53:29.075Z,12.57
2023-05-24T23:58:33.503Z,12.58
